Airfield :
LOGIN :

Register | Disclaimer

   EN    FR    IT 

 










Legend :    VFR   Marginal VFR   IFR   Intensive IFR   Very Intensive IFR
Visi :
Ceiling :
>= 8 km
>= 3000ft
5 to 8 km
1000 to 3000 ft
1500m to 5 km
500 to 1000 ft
800 to 1500m
200 to 500 ft
< 800m
< 200 ft
Symbols :   Thunderstorms  Fog  Heavy snow  Heavy precipitations  Wind > 20 kt
SIGMETs :     Misc.  Thunderstorms  Icing  Turbulence  Mountain Waves  Volcanic Ashes







- Airport Elevation : 0 ft


ETEB - Ansbach Army Heliport

CURRENT METAR :
  • 230158Z AUTO 26004KT 9999 CLR 10/08 A3005 RMK AO2 SLP182 T00960077

EXPIRED METARs :
  • 230058Z AUTO 27003KT 9999 CLR 10/08 A3005 RMK AO2 SLP182 T01030081
  • 222358Z AUTO 28003KT 9999 CLR 12/08 A3005 RMK AO2 SLP182 60000 T01150082 10184 20112 58003

TAF TAF ETEB
Valid from the 22 at 21:00 until the 24 at 03:00 UTC


222100Z 2221/2403 VRB06KT 9999 SCT035 QNH3004INS
BECMG 2223/2224 VRB06KT 6000 BR FEW020 QNH3006INS
BECMG 2304/2305 27009KT 9999 NSW FEW020 QNH3008INS TX23/2312Z TN08/2303Z
No reported NOTAMs for that airfield.



MET'MAP, your aeronautical weather chart ! - Copyright ORBIFLY December 2007 - Disclaimer

ORBIFLY MET'MAP TEAM :

Programming & Development : Alexandra Zaïnal
Concept & Development : Baudouin d'Aumeries
Co-Development & Prog : Marc-Olivier Méhu
Technical & hardware support : Manuel Goepfert

Contact : metmap@orbifly.com




SOURCES & CREDITS :

   NOAA